sensor_id;sensor_type;location;lat;lon;timestamp;temperature;humidity
64685;DHT22;51109;47.414;18.954;2024-02-23T00:01:32;10.40;99.90
64685;DHT22;51109;47.414;18.954;2024-02-23T00:03:58;10.40;99.90
64685;DHT22;51109;47.414;18.954;2024-02-23T00:06:24;10.40;99.90
64685;DHT22;51109;47.414;18.954;2024-02-23T00:08:53;10.40;99.90
64685;DHT22;51109;47.414;18.954;2024-02-23T00:11:21;10.50;99.90
64685;DHT22;51109;47.414;18.954;2024-02-23T00:13:46;10.40;99.90
64685;DHT22;51109;47.414;18.954;2024-02-23T00:16:12;10.40;99.90
64685;DHT22;51109;47.414;18.954;2024-02-23T00:18:38;10.50;99.90
64685;DHT22;51109;47.414;18.954;2024-02-23T00:21:04;10.50;99.90
64685;DHT22;51109;47.414;18.954;2024-02-23T00:23:30;10.50;99.90
64685;DHT22;51109;47.414;18.954;2024-02-23T00:25:56;10.60;99.90
64685;DHT22;51109;47.414;18.954;2024-02-23T00:28:22;10.60;99.90
64685;DHT22;51109;47.414;18.954;2024-02-23T00:30:48;10.60;99.90
64685;DHT22;51109;47.414;18.954;2024-02-23T00:33:14;10.60;99.90
64685;DHT22;51109;47.414;18.954;2024-02-23T00:35:40;10.60;99.90
64685;DHT22;51109;47.414;18.954;2024-02-23T00:38:06;10.60;99.90
64685;DHT22;51109;47.414;18.954;2024-02-23T00:40:33;10.60;99.90
64685;DHT22;51109;47.414;18.954;2024-02-23T00:42:59;10.60;99.90
64685;DHT22;51109;47.414;18.954;2024-02-23T00:45:26;10.60;99.90
64685;DHT22;51109;47.414;18.954;2024-02-23T00:47:52;10.60;99.90
64685;DHT22;51109;47.414;18.954;2024-02-23T00:50:18;10.60;99.90
64685;DHT22;51109;47.414;18.954;2024-02-23T00:52:44;10.60;99.90
64685;DHT22;51109;47.414;18.954;2024-02-23T00:55:10;10.60;99.90
64685;DHT22;51109;47.414;18.954;2024-02-23T00:57:38;10.60;99.90
64685;DHT22;51109;47.414;18.954;2024-02-23T01:00:04;10.50;99.90
64685;DHT22;51109;47.414;18.954;2024-02-23T01:02:37;10.50;99.90
64685;DHT22;51109;47.414;18.954;2024-02-23T01:05:04;10.40;99.90
64685;DHT22;51109;47.414;18.954;2024-02-23T01:07:30;10.40;99.90
64685;DHT22;51109;47.414;18.954;2024-02-23T01:09:56;10.30;99.90
64685;DHT22;51109;47.414;18.954;2024-02-23T01:12:22;10.30;99.90
64685;DHT22;51109;47.414;18.954;2024-02-23T01:14:48;10.20;99.90
64685;DHT22;51109;47.414;18.954;2024-02-23T01:17:14;10.20;99.90
64685;DHT22;51109;47.414;18.954;2024-02-23T01:19:43;10.10;99.90
64685;DHT22;51109;47.414;18.954;2024-02-23T01:22:09;10.10;99.90
64685;DHT22;51109;47.414;18.954;2024-02-23T01:24:34;10.00;99.90
64685;DHT22;51109;47.414;18.954;2024-02-23T01:27:00;10.00;99.90
64685;DHT22;51109;47.414;18.954;2024-02-23T01:29:26;9.90;99.90
64685;DHT22;51109;47.414;18.954;2024-02-23T01:31:52;9.90;99.90
64685;DHT22;51109;47.414;18.954;2024-02-23T01:34:20;9.90;99.90
64685;DHT22;51109;47.414;18.954;2024-02-23T01:36:47;9.80;99.90
64685;DHT22;51109;47.414;18.954;2024-02-23T01:39:13;9.80;99.90
64685;DHT22;51109;47.414;18.954;2024-02-23T01:41:39;9.90;99.90
64685;DHT22;51109;47.414;18.954;2024-02-23T01:44:05;9.80;99.90
64685;DHT22;51109;47.414;18.954;2024-02-23T01:46:31;9.80;99.90
64685;DHT22;51109;47.414;18.954;2024-02-23T01:48:57;9.80;99.90
64685;DHT22;51109;47.414;18.954;2024-02-23T01:51:24;9.80;99.90
64685;DHT22;51109;47.414;18.954;2024-02-23T01:53:50;9.70;99.90
64685;DHT22;51109;47.414;18.954;2024-02-23T01:56:17;9.70;99.90
64685;DHT22;51109;47.414;18.954;2024-02-23T01:58:46;9.70;99.90
64685;DHT22;51109;47.414;18.954;2024-02-23T02:01:12;9.70;99.90
64685;DHT22;51109;47.414;18.954;2024-02-23T02:03:38;9.70;99.90
64685;DHT22;51109;47.414;18.954;2024-02-23T02:06:05;10.20;99.90
64685;DHT22;51109;47.414;18.954;2024-02-23T02:08:35;9.70;99.90
64685;DHT22;51109;47.414;18.954;2024-02-23T02:11:01;9.80;99.90
64685;DHT22;51109;47.414;18.954;2024-02-23T02:13:30;9.80;99.90
64685;DHT22;51109;47.414;18.954;2024-02-23T02:15:59;9.80;99.90
64685;DHT22;51109;47.414;18.954;2024-02-23T02:18:26;9.80;99.90
64685;DHT22;51109;47.414;18.954;2024-02-23T02:20:54;9.80;99.90
64685;DHT22;51109;47.414;18.954;2024-02-23T02:23:21;9.80;99.90
64685;DHT22;51109;47.414;18.954;2024-02-23T02:25:53;9.80;99.90
64685;DHT22;51109;47.414;18.954;2024-02-23T02:28:20;9.70;99.90
64685;DHT22;51109;47.414;18.954;2024-02-23T02:30:45;9.90;99.90
64685;DHT22;51109;47.414;18.954;2024-02-23T02:33:11;9.80;99.90
64685;DHT22;51109;47.414;18.954;2024-02-23T02:35:37;9.80;99.90
64685;DHT22;51109;47.414;18.954;2024-02-23T02:38:03;9.80;99.90
64685;DHT22;51109;47.414;18.954;2024-02-23T02:40:29;9.80;99.90
64685;DHT22;51109;47.414;18.954;2024-02-23T02:42:55;9.80;99.90
64685;DHT22;51109;47.414;18.954;2024-02-23T02:45:20;9.70;99.90
64685;DHT22;51109;47.414;18.954;2024-02-23T02:47:46;9.70;99.90
64685;DHT22;51109;47.414;18.954;2024-02-23T02:50:12;9.70;99.90
64685;DHT22;51109;47.414;18.954;2024-02-23T02:52:38;9.70;99.90
64685;DHT22;51109;47.414;18.954;2024-02-23T02:55:04;9.70;99.90
64685;DHT22;51109;47.414;18.954;2024-02-23T02:57:30;9.60;99.90
64685;DHT22;51109;47.414;18.954;2024-02-23T02:59:56;9.60;99.90
64685;DHT22;51109;47.414;18.954;2024-02-23T03:02:22;9.70;99.90
64685;DHT22;51109;47.414;18.954;2024-02-23T03:04:48;9.60;99.90
64685;DHT22;51109;47.414;18.954;2024-02-23T03:07:15;9.60;99.90
64685;DHT22;51109;47.414;18.954;2024-02-23T03:09:41;9.50;99.90
64685;DHT22;51109;47.414;18.954;2024-02-23T03:12:08;9.70;99.90
64685;DHT22;51109;47.414;18.954;2024-02-23T03:14:33;9.50;99.90
64685;DHT22;51109;47.414;18.954;2024-02-23T03:17:00;9.40;99.90
64685;DHT22;51109;47.414;18.954;2024-02-23T03:19:25;9.40;99.90
64685;DHT22;51109;47.414;18.954;2024-02-23T03:21:51;9.30;99.90
64685;DHT22;51109;47.414;18.954;2024-02-23T03:24:17;9.30;99.90
64685;DHT22;51109;47.414;18.954;2024-02-23T03:26:43;9.30;99.90
64685;DHT22;51109;47.414;18.954;2024-02-23T03:29:10;9.20;99.90
64685;DHT22;51109;47.414;18.954;2024-02-23T03:31:36;9.30;99.90
64685;DHT22;51109;47.414;18.954;2024-02-23T03:34:02;9.30;99.90
64685;DHT22;51109;47.414;18.954;2024-02-23T03:36:28;9.30;99.90
64685;DHT22;51109;47.414;18.954;2024-02-23T03:38:54;9.30;99.90
64685;DHT22;51109;47.414;18.954;2024-02-23T03:41:20;9.20;99.90
64685;DHT22;51109;47.414;18.954;2024-02-23T03:43:46;9.30;99.90
64685;DHT22;51109;47.414;18.954;2024-02-23T03:46:11;9.30;99.90
64685;DHT22;51109;47.414;18.954;2024-02-23T03:48:37;9.30;99.90
64685;DHT22;51109;47.414;18.954;2024-02-23T03:51:04;9.40;99.90
64685;DHT22;51109;47.414;18.954;2024-02-23T03:53:33;9.40;99.90
64685;DHT22;51109;47.414;18.954;2024-02-23T03:55:58;9.40;99.90
64685;DHT22;51109;47.414;18.954;2024-02-23T03:58:24;9.50;99.90
64685;DHT22;51109;47.414;18.954;2024-02-23T04:00:51;9.40;99.90
64685;DHT22;51109;47.414;18.954;2024-02-23T04:03:17;9.50;99.90
64685;DHT22;51109;47.414;18.954;2024-02-23T04:05:43;9.50;99.90
64685;DHT22;51109;47.414;18.954;2024-02-23T04:08:08;9.50;99.90
64685;DHT22;51109;47.414;18.954;2024-02-23T04:10:34;9.50;99.90
64685;DHT22;51109;47.414;18.954;2024-02-23T04:13:01;9.50;99.90
64685;DHT22;51109;47.414;18.954;2024-02-23T04:15:27;9.50;99.90
64685;DHT22;51109;47.414;18.954;2024-02-23T04:17:53;9.50;99.90
64685;DHT22;51109;47.414;18.954;2024-02-23T04:20:19;9.50;99.90
64685;DHT22;51109;47.414;18.954;2024-02-23T04:22:44;9.40;99.90
64685;DHT22;51109;47.414;18.954;2024-02-23T04:25:11;9.40;99.90
64685;DHT22;51109;47.414;18.954;2024-02-23T04:27:37;9.40;99.90
64685;DHT22;51109;47.414;18.954;2024-02-23T04:30:04;9.40;99.90
64685;DHT22;51109;47.414;18.954;2024-02-23T04:32:30;9.40;99.90
64685;DHT22;51109;47.414;18.954;2024-02-23T04:34:56;9.40;99.90
64685;DHT22;51109;47.414;18.954;2024-02-23T04:37:22;9.40;99.90
64685;DHT22;51109;47.414;18.954;2024-02-23T04:39:48;9.40;99.90
64685;DHT22;51109;47.414;18.954;2024-02-23T04:42:13;9.40;99.90
64685;DHT22;51109;47.414;18.954;2024-02-23T04:44:41;9.40;99.90
64685;DHT22;51109;47.414;18.954;2024-02-23T04:47:08;9.40;99.90
64685;DHT22;51109;47.414;18.954;2024-02-23T04:49:34;9.40;99.90
64685;DHT22;51109;47.414;18.954;2024-02-23T04:52:00;9.40;99.90
64685;DHT22;51109;47.414;18.954;2024-02-23T04:54:26;9.40;99.90
64685;DHT22;51109;47.414;18.954;2024-02-23T04:56:52;9.40;99.90
64685;DHT22;51109;47.414;18.954;2024-02-23T04:59:18;9.40;99.90
64685;DHT22;51109;47.414;18.954;2024-02-23T05:01:44;9.40;99.90
64685;DHT22;51109;47.414;18.954;2024-02-23T05:04:10;9.40;99.90
64685;DHT22;51109;47.414;18.954;2024-02-23T05:06:35;9.30;99.90
64685;DHT22;51109;47.414;18.954;2024-02-23T05:09:01;9.30;99.90
64685;DHT22;51109;47.414;18.954;2024-02-23T05:11:28;9.30;99.90
64685;DHT22;51109;47.414;18.954;2024-02-23T05:13:54;9.30;99.90
64685;DHT22;51109;47.414;18.954;2024-02-23T05:16:20;9.20;99.90
64685;DHT22;51109;47.414;18.954;2024-02-23T05:18:46;9.20;99.90
64685;DHT22;51109;47.414;18.954;2024-02-23T05:21:14;9.20;99.90
64685;DHT22;51109;47.414;18.954;2024-02-23T05:23:40;9.20;99.90
64685;DHT22;51109;47.414;18.954;2024-02-23T05:26:06;9.20;99.90
64685;DHT22;51109;47.414;18.954;2024-02-23T05:28:33;9.10;99.90
64685;DHT22;51109;47.414;18.954;2024-02-23T05:30:58;9.10;99.90
64685;DHT22;51109;47.414;18.954;2024-02-23T05:33:24;9.10;99.90
64685;DHT22;51109;47.414;18.954;2024-02-23T05:35:50;9.10;99.90
64685;DHT22;51109;47.414;18.954;2024-02-23T05:38:16;9.10;99.90
64685;DHT22;51109;47.414;18.954;2024-02-23T05:40:43;9.00;99.90
64685;DHT22;51109;47.414;18.954;2024-02-23T05:43:09;9.00;99.90
64685;DHT22;51109;47.414;18.954;2024-02-23T05:45:34;9.00;99.90
64685;DHT22;51109;47.414;18.954;2024-02-23T05:48:00;9.00;99.90
64685;DHT22;51109;47.414;18.954;2024-02-23T05:50:26;9.00;99.90
64685;DHT22;51109;47.414;18.954;2024-02-23T05:52:52;9.00;99.90
64685;DHT22;51109;47.414;18.954;2024-02-23T05:55:19;9.00;99.90
64685;DHT22;51109;47.414;18.954;2024-02-23T05:57:45;9.00;99.90
64685;DHT22;51109;47.414;18.954;2024-02-23T06:00:11;9.00;99.90
64685;DHT22;51109;47.414;18.954;2024-02-23T06:02:38;8.90;99.90
64685;DHT22;51109;47.414;18.954;2024-02-23T06:05:05;8.90;99.90
64685;DHT22;51109;47.414;18.954;2024-02-23T06:07:33;8.90;99.90
64685;DHT22;51109;47.414;18.954;2024-02-23T06:10:00;8.90;99.90
64685;DHT22;51109;47.414;18.954;2024-02-23T06:12:26;9.00;99.90
64685;DHT22;51109;47.414;18.954;2024-02-23T06:14:52;8.90;99.90
64685;DHT22;51109;47.414;18.954;2024-02-23T06:17:18;8.90;99.90
64685;DHT22;51109;47.414;18.954;2024-02-23T06:19:44;8.90;99.90
64685;DHT22;51109;47.414;18.954;2024-02-23T06:22:10;8.90;99.90
64685;DHT22;51109;47.414;18.954;2024-02-23T06:24:37;8.90;99.90
64685;DHT22;51109;47.414;18.954;2024-02-23T06:27:03;8.90;99.90
64685;DHT22;51109;47.414;18.954;2024-02-23T06:29:29;8.90;99.90
64685;DHT22;51109;47.414;18.954;2024-02-23T06:31:55;8.90;99.90
64685;DHT22;51109;47.414;18.954;2024-02-23T06:34:21;8.90;99.90
64685;DHT22;51109;47.414;18.954;2024-02-23T06:36:47;8.90;99.90
64685;DHT22;51109;47.414;18.954;2024-02-23T06:39:13;8.90;99.90
64685;DHT22;51109;47.414;18.954;2024-02-23T06:41:39;8.80;99.90
64685;DHT22;51109;47.414;18.954;2024-02-23T06:44:05;8.90;99.90
64685;DHT22;51109;47.414;18.954;2024-02-23T06:46:31;8.90;99.90
64685;DHT22;51109;47.414;18.954;2024-02-23T06:48:57;8.90;99.90
64685;DHT22;51109;47.414;18.954;2024-02-23T06:51:23;8.90;99.90
64685;DHT22;51109;47.414;18.954;2024-02-23T06:53:48;8.90;99.90
64685;DHT22;51109;47.414;18.954;2024-02-23T06:56:14;8.90;99.90
64685;DHT22;51109;47.414;18.954;2024-02-23T06:58:40;8.90;99.90
64685;DHT22;51109;47.414;18.954;2024-02-23T07:01:06;8.80;99.90
64685;DHT22;51109;47.414;18.954;2024-02-23T07:03:33;8.90;99.90
64685;DHT22;51109;47.414;18.954;2024-02-23T07:06:00;8.90;99.90
64685;DHT22;51109;47.414;18.954;2024-02-23T07:08:26;8.90;99.90
64685;DHT22;51109;47.414;18.954;2024-02-23T07:10:52;8.90;99.90
64685;DHT22;51109;47.414;18.954;2024-02-23T07:13:19;9.00;99.90
64685;DHT22;51109;47.414;18.954;2024-02-23T07:15:45;9.00;99.90
64685;DHT22;51109;47.414;18.954;2024-02-23T07:18:11;9.00;99.90
64685;DHT22;51109;47.414;18.954;2024-02-23T07:20:37;9.00;99.90
64685;DHT22;51109;47.414;18.954;2024-02-23T07:23:03;9.00;99.90
64685;DHT22;51109;47.414;18.954;2024-02-23T07:25:28;9.00;99.90
64685;DHT22;51109;47.414;18.954;2024-02-23T07:27:55;9.00;99.90
64685;DHT22;51109;47.414;18.954;2024-02-23T07:30:20;9.00;99.90
64685;DHT22;51109;47.414;18.954;2024-02-23T07:32:46;9.00;99.90
64685;DHT22;51109;47.414;18.954;2024-02-23T07:35:12;9.00;99.90
64685;DHT22;51109;47.414;18.954;2024-02-23T07:37:38;9.10;99.90
64685;DHT22;51109;47.414;18.954;2024-02-23T07:40:05;9.00;99.90
64685;DHT22;51109;47.414;18.954;2024-02-23T07:42:34;9.00;99.90
64685;DHT22;51109;47.414;18.954;2024-02-23T07:45:04;9.00;99.90
64685;DHT22;51109;47.414;18.954;2024-02-23T07:47:33;9.00;99.90
64685;DHT22;51109;47.414;18.954;2024-02-23T07:49:59;9.00;99.90
64685;DHT22;51109;47.414;18.954;2024-02-23T07:52:25;9.00;99.90
64685;DHT22;51109;47.414;18.954;2024-02-23T07:54:54;9.00;99.90
64685;DHT22;51109;47.414;18.954;2024-02-23T07:57:20;9.00;99.90
64685;DHT22;51109;47.414;18.954;2024-02-23T07:59:46;9.00;99.90
64685;DHT22;51109;47.414;18.954;2024-02-23T08:02:14;9.00;99.90
64685;DHT22;51109;47.414;18.954;2024-02-23T08:04:40;9.00;99.90
64685;DHT22;51109;47.414;18.954;2024-02-23T08:07:06;9.00;99.90
64685;DHT22;51109;47.414;18.954;2024-02-23T08:09:32;9.00;99.90
64685;DHT22;51109;47.414;18.954;2024-02-23T08:11:58;9.00;99.90
64685;DHT22;51109;47.414;18.954;2024-02-23T08:14:24;9.00;99.90
64685;DHT22;51109;47.414;18.954;2024-02-23T08:16:49;9.00;99.90
64685;DHT22;51109;47.414;18.954;2024-02-23T08:19:15;9.00;99.90
64685;DHT22;51109;47.414;18.954;2024-02-23T08:21:41;9.00;99.90
64685;DHT22;51109;47.414;18.954;2024-02-23T08:24:07;9.00;99.90
64685;DHT22;51109;47.414;18.954;2024-02-23T08:26:33;9.10;99.90
64685;DHT22;51109;47.414;18.954;2024-02-23T08:28:59;9.10;99.90
64685;DHT22;51109;47.414;18.954;2024-02-23T08:31:25;9.20;99.90
64685;DHT22;51109;47.414;18.954;2024-02-23T08:33:51;9.20;99.90
64685;DHT22;51109;47.414;18.954;2024-02-23T08:36:17;9.20;99.90
64685;DHT22;51109;47.414;18.954;2024-02-23T08:38:43;9.20;99.90
64685;DHT22;51109;47.414;18.954;2024-02-23T08:41:09;9.20;99.90
64685;DHT22;51109;47.414;18.954;2024-02-23T08:43:35;9.20;99.90
64685;DHT22;51109;47.414;18.954;2024-02-23T08:46:01;9.20;99.90
64685;DHT22;51109;47.414;18.954;2024-02-23T08:48:27;9.20;99.90
64685;DHT22;51109;47.414;18.954;2024-02-23T08:50:53;9.30;99.90
64685;DHT22;51109;47.414;18.954;2024-02-23T08:53:20;9.30;99.90
64685;DHT22;51109;47.414;18.954;2024-02-23T08:55:46;9.30;99.90
64685;DHT22;51109;47.414;18.954;2024-02-23T08:58:11;9.20;99.90
64685;DHT22;51109;47.414;18.954;2024-02-23T09:00:37;9.30;99.90
64685;DHT22;51109;47.414;18.954;2024-02-23T09:03:04;9.30;99.90
64685;DHT22;51109;47.414;18.954;2024-02-23T09:05:29;9.30;99.90
64685;DHT22;51109;47.414;18.954;2024-02-23T09:07:55;9.30;99.90
64685;DHT22;51109;47.414;18.954;2024-02-23T09:10:21;9.30;99.90
64685;DHT22;51109;47.414;18.954;2024-02-23T09:12:47;9.30;99.90
64685;DHT22;51109;47.414;18.954;2024-02-23T09:15:13;9.40;99.90
64685;DHT22;51109;47.414;18.954;2024-02-23T09:17:40;9.40;99.90
64685;DHT22;51109;47.414;18.954;2024-02-23T09:20:07;9.40;99.90
64685;DHT22;51109;47.414;18.954;2024-02-23T09:22:33;9.40;99.90
64685;DHT22;51109;47.414;18.954;2024-02-23T09:24:59;9.40;99.90
64685;DHT22;51109;47.414;18.954;2024-02-23T09:27:25;9.40;99.90
64685;DHT22;51109;47.414;18.954;2024-02-23T09:29:51;9.50;99.90
64685;DHT22;51109;47.414;18.954;2024-02-23T09:32:17;9.40;99.90
64685;DHT22;51109;47.414;18.954;2024-02-23T09:34:43;9.40;99.90
64685;DHT22;51109;47.414;18.954;2024-02-23T09:37:09;9.50;99.90
64685;DHT22;51109;47.414;18.954;2024-02-23T09:39:35;9.50;99.90
64685;DHT22;51109;47.414;18.954;2024-02-23T09:42:01;9.50;99.90
64685;DHT22;51109;47.414;18.954;2024-02-23T09:44:34;9.50;99.90
64685;DHT22;51109;47.414;18.954;2024-02-23T09:47:04;9.50;99.90
64685;DHT22;51109;47.414;18.954;2024-02-23T09:49:40;9.50;99.90
64685;DHT22;51109;47.414;18.954;2024-02-23T09:52:07;9.50;99.90
64685;DHT22;51109;47.414;18.954;2024-02-23T09:54:34;9.50;99.90
64685;DHT22;51109;47.414;18.954;2024-02-23T09:57:01;9.50;99.90
64685;DHT22;51109;47.414;18.954;2024-02-23T09:59:29;9.60;99.90
64685;DHT22;51109;47.414;18.954;2024-02-23T10:01:56;9.50;99.90
64685;DHT22;51109;47.414;18.954;2024-02-23T10:04:24;9.60;99.90
64685;DHT22;51109;47.414;18.954;2024-02-23T10:06:50;9.60;99.90
64685;DHT22;51109;47.414;18.954;2024-02-23T10:09:16;9.60;99.90
64685;DHT22;51109;47.414;18.954;2024-02-23T10:11:42;9.60;99.90
64685;DHT22;51109;47.414;18.954;2024-02-23T10:14:08;9.70;99.90
64685;DHT22;51109;47.414;18.954;2024-02-23T10:16:37;9.70;99.90
64685;DHT22;51109;47.414;18.954;2024-02-23T10:19:03;9.70;99.90
64685;DHT22;51109;47.414;18.954;2024-02-23T10:21:29;9.70;99.90
64685;DHT22;51109;47.414;18.954;2024-02-23T10:23:55;9.70;99.90
64685;DHT22;51109;47.414;18.954;2024-02-23T10:26:21;9.70;99.90
64685;DHT22;51109;47.414;18.954;2024-02-23T10:28:48;9.70;99.90
64685;DHT22;51109;47.414;18.954;2024-02-23T10:31:14;9.70;99.90
64685;DHT22;51109;47.414;18.954;2024-02-23T10:33:40;9.70;99.90
64685;DHT22;51109;47.414;18.954;2024-02-23T10:36:07;9.80;99.90
64685;DHT22;51109;47.414;18.954;2024-02-23T10:38:38;9.80;99.90
64685;DHT22;51109;47.414;18.954;2024-02-23T10:41:06;9.80;99.90
64685;DHT22;51109;47.414;18.954;2024-02-23T10:43:51;9.90;99.90
64685;DHT22;51109;47.414;18.954;2024-02-23T10:46:18;9.90;99.90
64685;DHT22;51109;47.414;18.954;2024-02-23T10:48:48;10.00;99.90
64685;DHT22;51109;47.414;18.954;2024-02-23T10:51:15;10.00;99.90
64685;DHT22;51109;47.414;18.954;2024-02-23T10:53:41;10.10;99.90
64685;DHT22;51109;47.414;18.954;2024-02-23T10:56:10;10.10;99.90
64685;DHT22;51109;47.414;18.954;2024-02-23T10:58:36;10.10;99.90
64685;DHT22;51109;47.414;18.954;2024-02-23T11:01:04;10.10;99.90
64685;DHT22;51109;47.414;18.954;2024-02-23T11:03:33;10.30;99.90
64685;DHT22;51109;47.414;18.954;2024-02-23T11:06:00;10.30;99.90
64685;DHT22;51109;47.414;18.954;2024-02-23T11:08:29;10.40;99.90
64685;DHT22;51109;47.414;18.954;2024-02-23T11:10:55;10.40;99.90
64685;DHT22;51109;47.414;18.954;2024-02-23T11:13:50;10.40;99.90
64685;DHT22;51109;47.414;18.954;2024-02-23T11:16:22;10.50;99.90
64685;DHT22;51109;47.414;18.954;2024-02-23T11:19:04;10.50;99.90
64685;DHT22;51109;47.414;18.954;2024-02-23T11:21:35;10.50;99.90
64685;DHT22;51109;47.414;18.954;2024-02-23T11:24:04;10.60;99.90
64685;DHT22;51109;47.414;18.954;2024-02-23T11:26:30;10.60;99.90
64685;DHT22;51109;47.414;18.954;2024-02-23T11:28:56;10.70;99.90
64685;DHT22;51109;47.414;18.954;2024-02-23T11:31:23;10.70;99.90
64685;DHT22;51109;47.414;18.954;2024-02-23T11:33:54;10.70;99.90
64685;DHT22;51109;47.414;18.954;2024-02-23T11:36:30;10.60;99.90
64685;DHT22;51109;47.414;18.954;2024-02-23T11:38:58;10.60;99.90
64685;DHT22;51109;47.414;18.954;2024-02-23T11:41:25;10.60;99.90
64685;DHT22;51109;47.414;18.954;2024-02-23T11:43:52;10.50;99.90
64685;DHT22;51109;47.414;18.954;2024-02-23T11:46:19;10.60;99.90
64685;DHT22;51109;47.414;18.954;2024-02-23T11:48:45;10.60;99.90
64685;DHT22;51109;47.414;18.954;2024-02-23T11:51:15;10.70;99.90
64685;DHT22;51109;47.414;18.954;2024-02-23T11:53:41;10.70;99.90
64685;DHT22;51109;47.414;18.954;2024-02-23T11:56:07;10.80;99.90
64685;DHT22;51109;47.414;18.954;2024-02-23T11:58:34;10.80;99.90
64685;DHT22;51109;47.414;18.954;2024-02-23T12:01:01;10.80;99.90
64685;DHT22;51109;47.414;18.954;2024-02-23T12:03:31;10.90;99.90
64685;DHT22;51109;47.414;18.954;2024-02-23T12:05:58;11.00;99.90
64685;DHT22;51109;47.414;18.954;2024-02-23T12:08:27;11.00;99.90
64685;DHT22;51109;47.414;18.954;2024-02-23T12:10:54;11.00;99.90
64685;DHT22;51109;47.414;18.954;2024-02-23T12:13:21;11.10;99.90
64685;DHT22;51109;47.414;18.954;2024-02-23T12:15:53;11.20;99.90
64685;DHT22;51109;47.414;18.954;2024-02-23T12:18:22;11.20;99.90
64685;DHT22;51109;47.414;18.954;2024-02-23T12:20:49;11.20;99.90
64685;DHT22;51109;47.414;18.954;2024-02-23T12:23:15;11.20;99.90
64685;DHT22;51109;47.414;18.954;2024-02-23T12:25:52;11.10;99.90
64685;DHT22;51109;47.414;18.954;2024-02-23T12:28:19;11.10;99.90
64685;DHT22;51109;47.414;18.954;2024-02-23T12:30:45;11.00;99.90
64685;DHT22;51109;47.414;18.954;2024-02-23T12:33:15;10.90;99.90
64685;DHT22;51109;47.414;18.954;2024-02-23T12:35:41;10.90;99.90
64685;DHT22;51109;47.414;18.954;2024-02-23T12:38:07;10.80;99.90
64685;DHT22;51109;47.414;18.954;2024-02-23T12:40:33;10.80;99.90
64685;DHT22;51109;47.414;18.954;2024-02-23T12:42:59;10.80;99.90
64685;DHT22;51109;47.414;18.954;2024-02-23T12:45:25;10.70;99.90
64685;DHT22;51109;47.414;18.954;2024-02-23T12:47:51;10.80;99.90
64685;DHT22;51109;47.414;18.954;2024-02-23T12:50:17;10.80;99.90
64685;DHT22;51109;47.414;18.954;2024-02-23T12:52:43;10.80;99.90
64685;DHT22;51109;47.414;18.954;2024-02-23T12:55:09;10.80;99.90
64685;DHT22;51109;47.414;18.954;2024-02-23T12:57:35;10.70;99.90
64685;DHT22;51109;47.414;18.954;2024-02-23T13:00:00;10.80;99.90
64685;DHT22;51109;47.414;18.954;2024-02-23T13:02:26;10.70;99.90
64685;DHT22;51109;47.414;18.954;2024-02-23T13:04:52;10.60;99.90
64685;DHT22;51109;47.414;18.954;2024-02-23T13:07:18;10.60;99.90
64685;DHT22;51109;47.414;18.954;2024-02-23T13:09:44;10.70;99.90
64685;DHT22;51109;47.414;18.954;2024-02-23T13:12:10;10.70;99.90
64685;DHT22;51109;47.414;18.954;2024-02-23T13:14:36;10.60;99.90
64685;DHT22;51109;47.414;18.954;2024-02-23T13:17:02;10.60;99.90
64685;DHT22;51109;47.414;18.954;2024-02-23T13:19:29;10.60;99.90
64685;DHT22;51109;47.414;18.954;2024-02-23T13:21:55;10.60;99.90
64685;DHT22;51109;47.414;18.954;2024-02-23T13:24:21;10.50;99.90
64685;DHT22;51109;47.414;18.954;2024-02-23T13:26:47;10.50;99.90
64685;DHT22;51109;47.414;18.954;2024-02-23T13:29:13;10.50;99.90
64685;DHT22;51109;47.414;18.954;2024-02-23T13:31:39;10.50;99.90
64685;DHT22;51109;47.414;18.954;2024-02-23T13:34:05;10.50;99.90
64685;DHT22;51109;47.414;18.954;2024-02-23T13:36:31;10.50;99.90
64685;DHT22;51109;47.414;18.954;2024-02-23T13:38:57;10.50;99.90
64685;DHT22;51109;47.414;18.954;2024-02-23T13:41:23;10.50;99.90
64685;DHT22;51109;47.414;18.954;2024-02-23T13:43:48;10.60;99.90
64685;DHT22;51109;47.414;18.954;2024-02-23T13:46:14;10.60;99.90
64685;DHT22;51109;47.414;18.954;2024-02-23T13:48:40;10.60;99.90
64685;DHT22;51109;47.414;18.954;2024-02-23T13:51:06;10.60;99.90
64685;DHT22;51109;47.414;18.954;2024-02-23T13:53:32;10.50;99.90
64685;DHT22;51109;47.414;18.954;2024-02-23T13:55:59;10.50;99.90
64685;DHT22;51109;47.414;18.954;2024-02-23T13:58:27;10.50;99.90
64685;DHT22;51109;47.414;18.954;2024-02-23T14:00:54;10.50;99.90
64685;DHT22;51109;47.414;18.954;2024-02-23T14:03:19;10.50;99.90
64685;DHT22;51109;47.414;18.954;2024-02-23T14:05:47;10.50;99.90
64685;DHT22;51109;47.414;18.954;2024-02-23T14:08:13;10.50;99.90
64685;DHT22;51109;47.414;18.954;2024-02-23T14:10:39;10.50;99.90
64685;DHT22;51109;47.414;18.954;2024-02-23T14:13:06;10.50;99.90
64685;DHT22;51109;47.414;18.954;2024-02-23T14:15:32;10.50;99.90
64685;DHT22;51109;47.414;18.954;2024-02-23T14:17:58;10.50;99.90
64685;DHT22;51109;47.414;18.954;2024-02-23T14:20:24;10.70;99.90
64685;DHT22;51109;47.414;18.954;2024-02-23T14:22:49;10.50;99.90
64685;DHT22;51109;47.414;18.954;2024-02-23T14:25:16;10.50;99.90
64685;DHT22;51109;47.414;18.954;2024-02-23T14:27:42;10.40;99.90
64685;DHT22;51109;47.414;18.954;2024-02-23T14:30:09;10.40;99.90
64685;DHT22;51109;47.414;18.954;2024-02-23T14:32:36;10.40;99.90
64685;DHT22;51109;47.414;18.954;2024-02-23T14:35:02;10.40;99.90
64685;DHT22;51109;47.414;18.954;2024-02-23T14:37:29;10.40;99.90
64685;DHT22;51109;47.414;18.954;2024-02-23T14:39:55;10.40;99.90
64685;DHT22;51109;47.414;18.954;2024-02-23T14:42:21;10.40;99.90
64685;DHT22;51109;47.414;18.954;2024-02-23T14:44:47;10.40;99.90
64685;DHT22;51109;47.414;18.954;2024-02-23T14:47:13;10.40;99.90
64685;DHT22;51109;47.414;18.954;2024-02-23T14:49:39;10.40;99.90
64685;DHT22;51109;47.414;18.954;2024-02-23T14:52:05;10.40;99.90
64685;DHT22;51109;47.414;18.954;2024-02-23T14:54:30;10.40;99.90
64685;DHT22;51109;47.414;18.954;2024-02-23T14:56:58;10.40;99.90
64685;DHT22;51109;47.414;18.954;2024-02-23T14:59:24;10.40;99.90
64685;DHT22;51109;47.414;18.954;2024-02-23T15:01:50;10.40;99.90
64685;DHT22;51109;47.414;18.954;2024-02-23T15:04:17;10.40;99.90
64685;DHT22;51109;47.414;18.954;2024-02-23T15:06:42;10.40;99.90
64685;DHT22;51109;47.414;18.954;2024-02-23T15:09:08;10.40;99.90
64685;DHT22;51109;47.414;18.954;2024-02-23T15:11:34;10.40;99.90
64685;DHT22;51109;47.414;18.954;2024-02-23T15:14:00;10.40;99.90
64685;DHT22;51109;47.414;18.954;2024-02-23T15:16:27;10.40;99.90
64685;DHT22;51109;47.414;18.954;2024-02-23T15:18:54;10.40;99.90
64685;DHT22;51109;47.414;18.954;2024-02-23T15:21:20;10.40;99.90